createdAt,value
2022-08-28T00:00:46.836Z,0.00
2022-08-28T00:01:46.800Z,0.00
2022-08-28T00:02:46.866Z,0.00
2022-08-28T00:03:46.786Z,0.00
2022-08-28T00:04:46.944Z,0.00
2022-08-28T00:05:46.816Z,0.00
2022-08-28T00:06:46.765Z,0.00
2022-08-28T00:07:47.955Z,0.00
2022-08-28T00:08:47.750Z,0.00
2022-08-28T00:09:46.734Z,0.00
2022-08-28T00:10:46.755Z,0.00
2022-08-28T00:11:46.736Z,0.00
2022-08-28T00:12:46.710Z,0.00
2022-08-28T00:13:46.703Z,0.00
2022-08-28T00:14:46.712Z,0.00
2022-08-28T00:15:46.761Z,0.00
2022-08-28T00:16:46.682Z,0.00
2022-08-28T00:17:46.680Z,0.00
2022-08-28T00:18:47.102Z,0.00
2022-08-28T00:19:46.659Z,0.00
2022-08-28T00:20:46.676Z,0.00
2022-08-28T00:21:46.646Z,0.00
2022-08-28T00:22:46.640Z,0.00
2022-08-28T00:23:46.627Z,0.00
2022-08-28T00:24:46.623Z,0.00
2022-08-28T00:25:46.641Z,0.00
2022-08-28T00:26:46.619Z,0.00
2022-08-28T00:27:46.598Z,0.00
2022-08-28T00:28:46.589Z,0.00
2022-08-28T00:29:46.580Z,0.00
2022-08-28T00:30:46.606Z,0.00
2022-08-28T00:31:46.618Z,0.00
2022-08-28T00:32:46.557Z,0.00
2022-08-28T00:33:48.199Z,0.00
2022-08-28T00:34:47.543Z,0.00
2022-08-28T00:35:46.559Z,0.00
2022-08-28T00:36:46.534Z,0.00
2022-08-28T00:37:46.531Z,0.00
2022-08-28T00:38:46.515Z,0.00
2022-08-28T00:39:46.517Z,0.00
2022-08-28T00:40:46.556Z,0.00
2022-08-28T00:41:46.492Z,0.00
2022-08-28T00:42:46.484Z,0.00
2022-08-28T00:43:46.474Z,0.00
2022-08-28T00:44:46.475Z,0.00
2022-08-28T00:45:46.491Z,0.00
2022-08-28T00:46:46.511Z,0.00
2022-08-28T00:47:46.447Z,0.00
2022-08-28T00:48:46.438Z,0.00
2022-08-28T00:49:46.429Z,0.00
2022-08-28T00:50:46.420Z,0.00
2022-08-28T00:51:46.439Z,0.00
2022-08-28T00:52:46.403Z,0.00
2022-08-28T00:53:46.400Z,0.00
2022-08-28T00:54:58.936Z,0.00
2022-08-28T00:55:47.375Z,0.00
2022-08-28T00:56:46.394Z,0.00
2022-08-28T00:57:46.366Z,0.00
2022-08-28T00:58:46.355Z,0.00
2022-08-28T00:59:46.345Z,0.00
2022-08-28T01:00:46.340Z,0.00
2022-08-28T01:01:46.554Z,0.00
2022-08-28T01:02:46.394Z,0.00
2022-08-28T01:03:46.316Z,0.00
2022-08-28T01:04:46.308Z,0.00
2022-08-28T01:05:46.301Z,0.00
2022-08-28T01:06:46.318Z,0.00
2022-08-28T01:07:46.282Z,0.00
2022-08-28T01:08:46.280Z,0.00
2022-08-28T01:09:46.275Z,0.00
2022-08-28T01:10:46.261Z,0.00
2022-08-28T01:11:46.278Z,0.00
2022-08-28T01:12:46.249Z,0.00
2022-08-28T01:13:46.238Z,0.00
2022-08-28T01:14:46.229Z,0.00
2022-08-28T01:15:46.248Z,0.00
2022-08-28T01:16:46.240Z,0.00
2022-08-28T01:17:46.207Z,0.00
2022-08-28T01:18:46.194Z,0.00
2022-08-28T01:19:46.190Z,0.00
2022-08-28T01:20:46.182Z,0.00
2022-08-28T01:21:46.198Z,0.00
2022-08-28T01:22:46.168Z,0.00
2022-08-28T01:23:46.155Z,0.00
2022-08-28T01:24:46.154Z,0.00
2022-08-28T01:25:46.132Z,0.00
2022-08-28T01:26:47.164Z,0.00
2022-08-28T01:27:46.121Z,0.00
2022-08-28T01:28:46.116Z,0.00
2022-08-28T01:29:48.012Z,0.00
2022-08-28T01:30:46.153Z,0.00
2022-08-28T01:31:46.124Z,0.00
2022-08-28T01:32:46.085Z,0.00
2022-08-28T01:33:46.078Z,0.00
2022-08-28T01:34:46.072Z,0.00
2022-08-28T01:35:46.063Z,0.00
2022-08-28T01:36:46.090Z,0.00
2022-08-28T01:37:46.047Z,0.00
2022-08-28T01:38:46.036Z,0.00
2022-08-28T01:39:46.034Z,0.00
2022-08-28T01:40:46.022Z,0.00
2022-08-28T01:41:47.038Z,0.00
2022-08-28T01:42:46.012Z,0.00
2022-08-28T01:43:46.002Z,0.00
2022-08-28T01:44:45.994Z,0.00
2022-08-28T01:45:45.988Z,0.00
2022-08-28T01:46:46.111Z,0.00
2022-08-28T01:47:45.972Z,0.00
2022-08-28T01:48:45.967Z,0.00
2022-08-28T01:49:45.981Z,0.00
2022-08-28T01:50:45.946Z,0.00
2022-08-28T01:51:45.971Z,0.00
2022-08-28T01:52:45.934Z,0.00
2022-08-28T01:53:46.632Z,0.00
2022-08-28T01:54:45.921Z,0.00
2022-08-28T01:55:45.910Z,0.00
2022-08-28T01:56:45.931Z,0.00
2022-08-28T01:58:18.401Z,0.00
2022-08-28T01:58:45.891Z,0.00
2022-08-28T01:59:45.882Z,0.00
2022-08-28T02:00:45.869Z,0.00
2022-08-28T02:01:45.955Z,0.00
2022-08-28T02:02:45.860Z,0.00
2022-08-28T02:03:45.944Z,0.00
2022-08-28T02:04:48.158Z,0.00
2022-08-28T02:05:46.840Z,0.00
2022-08-28T02:06:45.870Z,0.00
2022-08-28T02:07:45.823Z,0.00
2022-08-28T02:08:45.805Z,0.00
2022-08-28T02:09:46.816Z,0.00
2022-08-28T02:10:45.801Z,0.00
2022-08-28T02:11:46.812Z,0.00
2022-08-28T02:12:45.790Z,0.00
2022-08-28T02:13:45.778Z,0.00
2022-08-28T02:14:46.785Z,0.00
2022-08-28T02:15:45.906Z,0.00
2022-08-28T02:16:45.793Z,0.00
2022-08-28T02:17:45.747Z,0.00
2022-08-28T02:18:45.740Z,0.00
2022-08-28T02:19:45.737Z,0.00
2022-08-28T02:20:45.719Z,0.00
2022-08-28T02:21:45.731Z,0.00
2022-08-28T02:22:45.736Z,0.00
2022-08-28T02:23:45.710Z,0.00
2022-08-28T02:24:45.696Z,0.00
2022-08-28T02:25:45.692Z,0.00
2022-08-28T02:26:45.680Z,0.00
2022-08-28T02:27:45.703Z,0.00
2022-08-28T02:28:45.665Z,0.00
2022-08-28T02:29:45.663Z,0.00
2022-08-28T02:30:45.690Z,0.00
2022-08-28T02:31:45.654Z,0.00
2022-08-28T02:32:45.664Z,0.00
2022-08-28T02:33:45.629Z,0.00
2022-08-28T02:34:45.623Z,0.00
2022-08-28T02:35:45.609Z,0.00
2022-08-28T02:36:45.607Z,0.00
2022-08-28T02:37:45.638Z,0.00
2022-08-28T02:38:45.593Z,0.00
2022-08-28T02:39:45.585Z,0.00
2022-08-28T02:40:45.579Z,0.00
2022-08-28T02:41:45.568Z,0.00
2022-08-28T02:42:45.583Z,0.00
2022-08-28T02:43:45.568Z,0.00
2022-08-28T02:44:45.544Z,0.00
2022-08-28T02:45:45.569Z,0.00
2022-08-28T02:46:45.534Z,0.00
2022-08-28T02:47:45.549Z,0.00
2022-08-28T02:48:45.510Z,0.00
2022-08-28T02:49:45.505Z,0.00
2022-08-28T02:50:45.495Z,0.00
2022-08-28T02:51:45.494Z,0.00
2022-08-28T02:52:45.518Z,0.00
2022-08-28T02:53:45.477Z,0.00
2022-08-28T02:54:45.474Z,0.00
2022-08-28T02:55:45.460Z,0.00
2022-08-28T02:56:45.491Z,0.00
2022-08-28T02:57:45.464Z,0.00
2022-08-28T02:58:46.442Z,0.00
2022-08-28T02:59:45.432Z,0.00
2022-08-28T03:00:45.421Z,0.00
2022-08-28T03:01:45.458Z,0.00
2022-08-28T03:02:45.603Z,0.00
2022-08-28T03:03:45.396Z,0.00
2022-08-28T03:04:45.388Z,0.00
2022-08-28T03:05:45.387Z,0.00
2022-08-28T03:06:45.374Z,0.00
2022-08-28T03:07:45.396Z,0.00
2022-08-28T03:08:45.358Z,0.00
2022-08-28T03:09:45.345Z,0.00
2022-08-28T03:10:45.346Z,0.00
2022-08-28T03:11:45.333Z,0.00
2022-08-28T03:12:45.353Z,0.00
2022-08-28T03:13:45.316Z,0.00
2022-08-28T03:14:45.309Z,0.00
2022-08-28T03:15:45.311Z,0.00
2022-08-28T03:16:45.327Z,0.00
2022-08-28T03:17:45.312Z,0.00
2022-08-28T03:18:45.296Z,0.00
2022-08-28T03:19:45.282Z,0.00
2022-08-28T03:20:45.264Z,0.00
2022-08-28T03:21:45.258Z,0.00
2022-08-28T03:22:45.276Z,0.00
2022-08-28T03:23:45.245Z,0.00
2022-08-28T03:24:45.241Z,0.00
2022-08-28T03:25:45.235Z,0.00
2022-08-28T03:26:45.223Z,0.00
2022-08-28T03:27:45.252Z,0.00
2022-08-28T03:28:45.208Z,0.00
2022-08-28T03:29:45.203Z,0.00
2022-08-28T03:30:45.270Z,0.00
2022-08-28T03:31:45.178Z,0.00
2022-08-28T03:32:45.173Z,0.00
2022-08-28T03:33:45.190Z,0.00
2022-08-28T03:34:45.152Z,0.00
2022-08-28T03:35:45.151Z,0.00
2022-08-28T03:36:45.138Z,0.00
2022-08-28T03:37:45.162Z,0.00
2022-08-28T03:38:45.128Z,0.00
2022-08-28T03:39:45.126Z,0.00
2022-08-28T03:40:45.112Z,0.00
2022-08-28T03:41:45.103Z,0.00
2022-08-28T03:42:51.312Z,0.00
2022-08-28T03:43:46.095Z,0.00
2022-08-28T03:44:45.085Z,0.00
2022-08-28T03:45:45.125Z,0.00
2022-08-28T03:46:45.072Z,0.00
2022-08-28T03:47:45.079Z,0.00
2022-08-28T03:48:45.093Z,0.00
2022-08-28T03:49:45.042Z,0.00
2022-08-28T03:50:45.036Z,0.00
2022-08-28T03:51:45.025Z,0.00
2022-08-28T03:52:45.052Z,0.00
2022-08-28T03:53:45.018Z,0.00
2022-08-28T03:54:45.013Z,0.00
2022-08-28T03:55:44.991Z,0.00
2022-08-28T03:56:44.990Z,0.00
2022-08-28T03:57:45.005Z,0.00
2022-08-28T03:58:44.978Z,0.00
2022-08-28T03:59:44.963Z,0.00
2022-08-28T04:00:44.958Z,0.00
2022-08-28T04:01:45.004Z,0.00
2022-08-28T04:02:44.979Z,0.00
2022-08-28T04:03:45.000Z,0.00
2022-08-28T04:04:44.929Z,0.00
2022-08-28T04:05:44.917Z,0.00
2022-08-28T04:06:44.911Z,0.00
2022-08-28T04:07:44.935Z,0.00
2022-08-28T04:08:44.902Z,0.00
2022-08-28T04:09:44.883Z,0.00
2022-08-28T04:10:44.881Z,0.00
2022-08-28T04:11:44.869Z,0.00
2022-08-28T04:12:44.894Z,0.00
2022-08-28T04:13:44.851Z,0.00
2022-08-28T04:14:44.849Z,0.00
2022-08-28T04:15:44.838Z,4.00
2022-08-28T04:16:44.877Z,4.00
2022-08-28T04:17:44.866Z,0.00
2022-08-28T04:18:44.830Z,0.00
2022-08-28T04:19:44.815Z,4.00
2022-08-28T04:20:46.421Z,4.00
2022-08-28T04:21:44.806Z,4.00
2022-08-28T04:22:45.255Z,4.00
2022-08-28T04:23:44.782Z,4.00
2022-08-28T04:24:44.775Z,8.00
2022-08-28T04:25:44.764Z,8.00
2022-08-28T04:26:44.757Z,8.00
2022-08-28T04:27:44.779Z,8.00
2022-08-28T04:28:44.743Z,12.00
2022-08-28T04:29:44.737Z,12.00
2022-08-28T04:30:44.729Z,12.00
2022-08-28T04:31:44.746Z,12.00
2022-08-28T04:32:44.741Z,16.00
2022-08-28T04:33:44.707Z,16.00
2022-08-28T04:34:44.689Z,20.00
2022-08-28T04:35:44.691Z,24.00
2022-08-28T04:36:44.681Z,28.00
2022-08-28T04:37:44.674Z,28.00
2022-08-28T04:38:44.687Z,32.00
2022-08-28T04:39:44.657Z,40.00
2022-08-28T04:40:44.654Z,40.00
2022-08-28T04:41:44.635Z,44.00
2022-08-28T04:42:44.645Z,44.00
2022-08-28T04:43:44.649Z,48.00
2022-08-28T04:44:44.633Z,52.00
2022-08-28T04:45:44.678Z,56.00
2022-08-28T04:46:44.604Z,60.00
2022-08-28T04:47:44.593Z,60.00
2022-08-28T04:48:44.616Z,68.00
2022-08-28T04:49:44.585Z,72.00
2022-08-28T04:50:44.572Z,80.00
2022-08-28T04:51:44.565Z,88.00
2022-08-28T04:52:44.556Z,96.00
2022-08-28T04:53:44.576Z,104.00
2022-08-28T04:54:44.547Z,120.00
2022-08-28T04:55:53.919Z,136.00
2022-08-28T04:56:45.544Z,152.00
2022-08-28T04:57:44.518Z,168.00
2022-08-28T04:58:44.548Z,192.00
2022-08-28T04:59:44.502Z,212.00
2022-08-28T05:00:44.548Z,228.00
2022-08-28T05:01:44.499Z,248.00
2022-08-28T05:02:44.480Z,276.00
2022-08-28T05:03:44.497Z,296.00
2022-08-28T05:04:44.467Z,320.00
2022-08-28T05:05:44.462Z,344.00
2022-08-28T05:06:44.452Z,384.00
2022-08-28T05:07:45.012Z,420.00
2022-08-28T05:08:44.466Z,464.00
2022-08-28T05:09:44.431Z,500.00
2022-08-28T05:10:44.426Z,544.00
2022-08-28T05:11:44.415Z,576.00
2022-08-28T05:12:44.402Z,600.00
2022-08-28T05:13:44.426Z,608.00
2022-08-28T05:14:44.395Z,608.00
2022-08-28T05:15:44.385Z,624.00
2022-08-28T05:16:44.461Z,652.00
2022-08-28T05:17:44.373Z,684.00
2022-08-28T05:18:44.386Z,724.00
2022-08-28T05:19:44.358Z,752.00
2022-08-28T05:20:44.338Z,800.00
2022-08-28T05:21:45.340Z,840.00
2022-08-28T05:22:44.338Z,948.00
2022-08-28T05:23:44.354Z,1088.00
2022-08-28T05:24:44.321Z,1240.00
2022-08-28T05:25:44.316Z,1352.00
2022-08-28T05:26:44.303Z,1380.00
2022-08-28T05:27:44.311Z,1192.00
2022-08-28T05:28:44.312Z,1180.00
2022-08-28T05:29:44.277Z,1184.00
2022-08-28T05:30:44.266Z,1176.00
2022-08-28T05:31:44.304Z,1164.00
2022-08-28T05:32:44.257Z,1144.00
2022-08-28T05:33:44.275Z,1128.00
2022-08-28T05:34:44.236Z,1100.00
2022-08-28T05:35:44.229Z,1068.00
2022-08-28T05:36:44.217Z,1012.00
2022-08-28T05:37:44.213Z,972.00
2022-08-28T05:38:44.233Z,936.00
2022-08-28T05:39:44.216Z,872.00
2022-08-28T05:40:44.224Z,824.00
2022-08-28T05:41:44.202Z,784.00
2022-08-28T05:42:44.174Z,752.00
2022-08-28T05:43:44.201Z,736.00
2022-08-28T05:44:44.156Z,744.00
2022-08-28T05:45:44.222Z,768.00
2022-08-28T05:46:44.166Z,780.00
2022-08-28T05:47:44.138Z,804.00
2022-08-28T05:48:44.126Z,848.00
2022-08-28T05:49:44.434Z,884.00
2022-08-28T05:50:47.275Z,952.00
2022-08-28T05:51:44.103Z,1036.00
2022-08-28T05:52:44.102Z,1124.00
2022-08-28T05:53:44.087Z,1208.00
2022-08-28T05:54:44.431Z,1324.00
2022-08-28T05:55:44.073Z,1468.00
2022-08-28T05:56:44.075Z,1596.00
2022-08-28T05:57:44.058Z,1780.00
2022-08-28T05:58:44.056Z,1880.00
2022-08-28T05:59:44.072Z,2012.00
2022-08-28T06:00:44.040Z,2212.00
2022-08-28T06:01:44.113Z,2364.00
2022-08-28T06:02:44.026Z,2464.00
2022-08-28T06:03:44.047Z,2544.00
2022-08-28T06:04:44.035Z,2712.00
2022-08-28T06:05:43.999Z,2824.00
2022-08-28T06:06:43.999Z,2932.00
2022-08-28T06:07:43.983Z,3004.00
2022-08-28T06:08:58.392Z,3084.00
2022-08-28T06:09:44.999Z,3132.00
2022-08-28T06:10:43.965Z,3128.00
2022-08-28T06:11:46.124Z,3112.00
2022-08-28T06:12:43.953Z,3084.00
2022-08-28T06:13:43.950Z,3076.00
2022-08-28T06:14:43.967Z,3084.00
2022-08-28T06:15:44.028Z,3224.00
2022-08-28T06:16:43.924Z,3204.00
2022-08-28T06:17:43.919Z,3176.00
2022-08-28T06:18:43.918Z,3300.00
2022-08-28T06:19:43.928Z,3288.00
2022-08-28T06:20:43.892Z,3276.00
2022-08-28T06:21:43.889Z,3264.00
2022-08-28T06:22:43.875Z,3272.00
2022-08-28T06:23:43.873Z,3244.00
2022-08-28T06:24:43.895Z,3284.00
2022-08-28T06:25:43.873Z,3236.00
2022-08-28T06:26:43.849Z,3196.00
2022-08-28T06:27:43.839Z,3184.00
2022-08-28T06:28:43.843Z,3148.00
2022-08-28T06:29:43.846Z,3204.00
2022-08-28T06:31:02.714Z,3164.00
2022-08-28T06:31:45.843Z,3100.00
2022-08-28T06:32:43.803Z,3072.00
2022-08-28T06:33:43.791Z,2932.00
2022-08-28T06:34:43.826Z,2976.00
2022-08-28T06:35:43.787Z,3044.00
2022-08-28T06:36:43.770Z,3220.00
2022-08-28T06:37:43.761Z,3120.00
2022-08-28T06:38:43.762Z,3312.00
2022-08-28T06:39:43.773Z,3048.00
2022-08-28T06:40:43.740Z,3036.00
2022-08-28T06:41:43.732Z,2744.00
2022-08-28T06:42:43.743Z,2392.00
2022-08-28T06:43:43.717Z,2264.00
2022-08-28T06:44:43.744Z,2208.00
2022-08-28T06:45:43.718Z,2132.00
2022-08-28T06:46:43.700Z,2108.00
2022-08-28T06:47:43.701Z,2080.00
2022-08-28T06:48:43.678Z,1984.00
2022-08-28T06:49:43.701Z,1896.00
2022-08-28T06:50:43.666Z,1836.00
2022-08-28T06:51:43.660Z,1820.00
2022-08-28T06:52:43.645Z,1820.00
2022-08-28T06:53:43.646Z,1852.00
2022-08-28T06:54:55.371Z,1916.00
2022-08-28T06:55:44.627Z,1952.00
2022-08-28T06:56:43.625Z,2084.00
2022-08-28T06:57:43.616Z,2112.00
2022-08-28T06:58:50.150Z,2128.00
2022-08-28T06:59:44.626Z,2216.00
2022-08-28T07:00:43.593Z,2156.00
2022-08-28T07:01:43.642Z,2132.00
2022-08-28T07:02:43.601Z,2132.00
2022-08-28T07:03:44.369Z,2120.00
2022-08-28T07:04:43.588Z,2028.00
2022-08-28T07:05:43.551Z,2004.00
2022-08-28T07:06:43.547Z,2092.00
2022-08-28T07:07:43.545Z,2060.00
2022-08-28T07:08:43.533Z,2024.00
2022-08-28T07:09:43.562Z,2016.00
2022-08-28T07:10:43.526Z,2008.00
2022-08-28T07:11:43.516Z,2008.00
2022-08-28T07:12:43.497Z,1960.00
2022-08-28T07:13:43.503Z,2052.00
2022-08-28T07:14:43.527Z,2004.00
2022-08-28T07:15:43.522Z,1916.00
2022-08-28T07:16:43.471Z,1812.00
2022-08-28T07:17:43.475Z,1788.00
2022-08-28T07:18:43.466Z,1780.00
2022-08-28T07:19:43.456Z,1720.00
2022-08-28T07:20:43.467Z,1704.00
2022-08-28T07:21:43.539Z,1720.00
2022-08-28T07:22:43.417Z,1764.00
2022-08-28T07:23:43.419Z,1820.00
2022-08-28T07:24:43.414Z,1872.00
2022-08-28T07:25:43.435Z,1988.00
2022-08-28T07:26:43.400Z,1880.00
2022-08-28T07:27:43.397Z,1848.00
2022-08-28T07:28:43.386Z,1780.00
2022-08-28T07:29:43.400Z,1752.00
2022-08-28T07:30:43.469Z,1720.00
2022-08-28T07:31:43.359Z,1708.00
2022-08-28T07:32:43.354Z,1724.00
2022-08-28T07:33:43.345Z,1712.00
2022-08-28T07:34:43.386Z,1740.00
2022-08-28T07:35:43.334Z,1848.00
2022-08-28T07:36:43.329Z,1888.00
2022-08-28T07:37:43.308Z,1940.00
2022-08-28T07:38:43.322Z,1924.00
2022-08-28T07:39:43.326Z,1956.00
2022-08-28T07:40:43.284Z,2000.00
2022-08-28T07:41:43.329Z,2016.00
2022-08-28T07:42:43.267Z,2008.00
2022-08-28T07:43:43.260Z,2000.00
2022-08-28T07:44:43.278Z,1920.00
2022-08-28T07:45:43.306Z,1948.00
2022-08-28T07:46:43.242Z,2168.00
2022-08-28T07:47:43.237Z,2824.00
2022-08-28T07:48:43.224Z,2196.00
2022-08-28T07:49:43.245Z,2228.00
2022-08-28T07:50:43.227Z,2336.00
2022-08-28T07:51:43.259Z,2428.00
2022-08-28T07:52:43.232Z,2384.00
2022-08-28T07:53:43.196Z,2356.00
2022-08-28T07:54:43.203Z,2332.00
2022-08-28T07:55:43.172Z,2256.00
2022-08-28T07:56:43.161Z,2156.00
2022-08-28T07:58:16.048Z,2124.00
2022-08-28T07:58:43.144Z,2176.00
2022-08-28T07:59:43.171Z,2480.00
2022-08-28T08:00:43.148Z,3000.00
2022-08-28T08:01:43.203Z,2376.00
2022-08-28T08:02:43.128Z,2332.00
2022-08-28T08:03:43.215Z,2408.00
2022-08-28T08:04:43.135Z,2608.00
2022-08-28T08:05:43.094Z,2792.00
2022-08-28T08:06:43.082Z,2808.00
2022-08-28T08:07:43.907Z,2492.00
2022-08-28T08:08:43.069Z,2352.00
2022-08-28T08:09:43.096Z,2924.00
2022-08-28T08:10:43.056Z,2476.00
2022-08-28T08:11:43.048Z,2312.00
2022-08-28T08:12:43.034Z,2316.00
2022-08-28T08:13:43.031Z,2276.00
2022-08-28T08:14:43.052Z,2532.00
2022-08-28T08:15:44.000Z,3112.00
2022-08-28T08:16:43.006Z,3124.00
2022-08-28T08:17:43.003Z,3056.00
2022-08-28T08:18:42.990Z,3072.00
2022-08-28T08:19:43.030Z,3088.00
2022-08-28T08:20:42.977Z,3156.00
2022-08-28T08:21:42.968Z,3212.00
2022-08-28T08:22:42.962Z,2968.00
2022-08-28T08:23:42.964Z,2828.00
2022-08-28T08:24:42.978Z,3172.00
2022-08-28T08:25:42.932Z,2960.00
2022-08-28T08:26:42.929Z,3116.00
2022-08-28T08:27:43.235Z,2404.00
2022-08-28T08:28:43.951Z,2448.00
2022-08-28T08:29:42.904Z,2448.00
2022-08-28T08:30:42.947Z,2200.00
2022-08-28T08:31:42.891Z,2808.00
2022-08-28T08:32:43.022Z,3040.00
2022-08-28T08:33:42.877Z,2900.00
2022-08-28T08:34:42.866Z,2096.00
2022-08-28T08:35:42.883Z,2180.00
2022-08-28T08:36:42.848Z,2784.00
2022-08-28T08:37:42.841Z,2652.00
2022-08-28T08:38:42.832Z,2480.00
2022-08-28T08:39:42.823Z,1916.00
2022-08-28T08:40:43.742Z,2464.00
2022-08-28T08:41:42.810Z,1948.00
2022-08-28T08:42:42.806Z,2804.00
2022-08-28T08:43:42.798Z,2816.00
2022-08-28T08:44:42.792Z,2808.00
2022-08-28T08:45:42.802Z,2792.00
2022-08-28T08:46:42.845Z,2772.00
2022-08-28T08:47:42.767Z,2748.00
2022-08-28T08:48:42.759Z,2172.00
2022-08-28T08:49:42.755Z,2700.00
2022-08-28T08:50:42.791Z,2692.00
2022-08-28T08:51:42.739Z,2708.00
2022-08-28T08:52:42.739Z,2704.00
2022-08-28T08:53:42.753Z,2020.00
2022-08-28T08:54:42.739Z,2720.00
2022-08-28T08:55:42.737Z,2324.00
2022-08-28T08:56:42.713Z,2452.00
2022-08-28T08:57:42.691Z,2728.00
2022-08-28T08:58:42.701Z,2748.00
2022-08-28T08:59:42.678Z,1976.00
2022-08-28T09:00:42.691Z,1732.00
2022-08-28T09:01:42.697Z,2748.00
2022-08-28T09:02:42.794Z,2716.00
2022-08-28T09:03:44.266Z,2492.00
2022-08-28T09:04:42.635Z,2672.00
2022-08-28T09:05:42.650Z,2660.00
2022-08-28T09:06:42.617Z,2656.00
2022-08-28T09:07:42.624Z,2648.00
2022-08-28T09:08:42.605Z,2624.00
2022-08-28T09:09:42.605Z,2632.00
2022-08-28T09:10:42.628Z,2624.00
2022-08-28T09:11:42.583Z,2656.00
2022-08-28T09:12:42.581Z,2644.00
2022-08-28T09:13:42.564Z,2632.00
2022-08-28T09:14:42.561Z,2624.00
2022-08-28T09:15:42.776Z,2628.00
2022-08-28T09:16:42.546Z,2628.00
2022-08-28T09:17:42.627Z,2632.00
2022-08-28T09:18:42.528Z,2620.00
2022-08-28T09:19:42.554Z,2616.00
2022-08-28T09:20:42.515Z,2584.00
2022-08-28T09:21:42.507Z,2612.00
2022-08-28T09:22:42.500Z,2584.00
2022-08-28T09:23:42.489Z,2588.00
2022-08-28T09:24:42.512Z,2596.00
2022-08-28T09:25:42.475Z,2596.00
2022-08-28T09:26:42.463Z,2616.00
2022-08-28T09:27:42.567Z,2600.00
2022-08-28T09:28:42.450Z,2620.00
2022-08-28T09:29:42.442Z,2600.00
2022-08-28T09:30:42.530Z,2592.00
2022-08-28T09:31:42.435Z,2580.00
2022-08-28T09:32:42.567Z,2572.00
2022-08-28T09:33:42.411Z,2584.00
2022-08-28T09:34:42.425Z,2552.00
2022-08-28T09:35:42.431Z,2560.00
2022-08-28T09:36:42.403Z,2556.00
2022-08-28T09:37:42.390Z,2560.00
2022-08-28T09:38:42.379Z,2548.00
2022-08-28T09:39:45.590Z,2544.00
2022-08-28T09:40:43.423Z,2536.00
2022-08-28T09:41:42.361Z,2536.00
2022-08-28T09:42:42.409Z,2544.00
2022-08-28T09:43:42.339Z,2536.00
2022-08-28T09:44:42.371Z,2520.00
2022-08-28T09:45:42.349Z,2512.00
2022-08-28T09:46:42.360Z,2480.00
2022-08-28T09:47:46.782Z,2496.00
2022-08-28T09:48:42.303Z,2528.00
2022-08-28T09:49:42.311Z,2540.00
2022-08-28T09:50:42.311Z,2532.00
2022-08-28T09:51:42.278Z,2520.00
2022-08-28T09:52:42.324Z,2500.00
2022-08-28T09:53:42.261Z,2520.00
2022-08-28T09:54:42.255Z,2532.00
2022-08-28T09:55:42.277Z,2512.00
2022-08-28T09:56:42.239Z,2524.00
2022-08-28T09:57:42.236Z,2524.00
2022-08-28T09:58:42.228Z,2504.00
2022-08-28T09:59:42.223Z,2508.00
2022-08-28T10:00:42.263Z,2508.00
2022-08-28T10:01:44.835Z,2508.00
2022-08-28T10:02:42.203Z,2512.00
2022-08-28T10:03:42.212Z,2512.00
2022-08-28T10:04:42.224Z,2524.00
2022-08-28T10:05:42.199Z,2532.00
2022-08-28T10:06:43.699Z,2532.00
2022-08-28T10:07:42.159Z,2528.00
2022-08-28T10:08:42.143Z,2528.00
2022-08-28T10:09:47.872Z,2524.00
2022-08-28T10:10:43.150Z,2528.00
2022-08-28T10:11:44.387Z,2524.00
2022-08-28T10:12:43.119Z,2524.00
2022-08-28T10:13:42.104Z,2508.00
2022-08-28T10:14:42.101Z,2532.00
2022-08-28T10:15:43.560Z,2528.00
2022-08-28T10:16:43.085Z,2528.00
2022-08-28T10:17:42.088Z,2528.00
2022-08-28T10:18:42.071Z,2528.00
2022-08-28T10:19:42.067Z,2532.00
2022-08-28T10:20:42.087Z,2512.00
2022-08-28T10:21:42.048Z,2520.00
2022-08-28T10:22:42.054Z,2524.00
2022-08-28T10:23:42.122Z,2540.00
2022-08-28T10:24:42.031Z,2500.00
2022-08-28T10:25:42.042Z,2540.00
2022-08-28T10:26:41.997Z,2516.00
2022-08-28T10:27:43.017Z,2508.00
2022-08-28T10:28:41.996Z,2448.00
2022-08-28T10:29:41.992Z,2492.00
2022-08-28T10:30:42.033Z,2380.00
2022-08-28T10:31:41.980Z,2480.00
2022-08-28T10:32:41.979Z,2480.00
2022-08-28T10:33:41.953Z,2528.00
2022-08-28T10:34:41.963Z,2492.00
2022-08-28T10:35:41.976Z,2548.00
2022-08-28T10:36:41.936Z,2556.00
2022-08-28T10:37:41.927Z,2576.00
2022-08-28T10:38:41.921Z,2580.00
2022-08-28T10:39:41.928Z,2588.00
2022-08-28T10:40:42.148Z,2588.00
2022-08-28T10:41:42.519Z,2588.00
2022-08-28T10:42:41.907Z,2584.00
2022-08-28T10:43:41.952Z,2556.00
2022-08-28T10:44:41.880Z,2524.00
2022-08-28T10:45:41.883Z,2552.00
2022-08-28T10:46:41.911Z,2544.00
2022-08-28T10:47:41.850Z,2528.00
2022-08-28T10:48:41.919Z,2532.00
2022-08-28T10:49:41.853Z,2524.00
2022-08-28T10:50:41.859Z,2528.00
2022-08-28T10:51:44.276Z,2540.00
2022-08-28T10:52:42.813Z,2540.00
2022-08-28T10:53:41.799Z,2536.00
2022-08-28T10:54:41.793Z,2540.00
2022-08-28T10:55:41.818Z,2544.00
2022-08-28T10:56:41.785Z,2560.00
2022-08-28T10:57:41.777Z,2588.00
2022-08-28T10:58:41.879Z,2620.00
2022-08-28T10:59:42.387Z,2644.00
2022-08-28T11:00:41.785Z,2684.00
2022-08-28T11:01:41.890Z,2736.00
2022-08-28T11:02:41.781Z,2732.00
2022-08-28T11:03:41.730Z,2660.00
2022-08-28T11:04:41.723Z,2592.00
2022-08-28T11:05:49.432Z,2556.00
2022-08-28T11:06:42.704Z,2536.00
2022-08-28T11:07:41.702Z,2520.00
2022-08-28T11:08:41.687Z,2500.00
2022-08-28T11:09:41.690Z,2480.00
2022-08-28T11:10:41.711Z,2468.00
2022-08-28T11:11:41.668Z,2436.00
2022-08-28T11:12:41.661Z,2392.00
2022-08-28T11:13:41.649Z,2364.00
2022-08-28T11:14:47.717Z,2360.00
2022-08-28T11:15:42.662Z,2352.00
2022-08-28T11:16:41.676Z,2380.00
2022-08-28T11:17:41.626Z,2412.00
2022-08-28T11:18:41.621Z,2392.00
2022-08-28T11:19:44.505Z,2400.00
2022-08-28T11:20:42.629Z,2424.00
2022-08-28T11:21:41.611Z,2440.00
2022-08-28T11:22:41.610Z,2432.00
2022-08-28T11:23:41.580Z,2420.00
2022-08-28T11:24:43.811Z,2420.00
2022-08-28T11:25:41.588Z,2416.00
2022-08-28T11:26:41.562Z,2416.00
2022-08-28T11:27:41.555Z,2416.00
2022-08-28T11:28:42.199Z,2408.00
2022-08-28T11:29:41.531Z,2412.00
2022-08-28T11:30:41.685Z,2408.00
2022-08-28T11:31:41.518Z,2404.00
2022-08-28T11:32:47.228Z,2408.00
2022-08-28T11:33:42.501Z,2376.00
2022-08-28T11:34:41.491Z,2380.00
2022-08-28T11:35:41.523Z,2376.00
2022-08-28T11:36:41.481Z,2360.00
2022-08-28T11:37:41.473Z,2348.00
2022-08-28T11:38:41.466Z,2360.00
2022-08-28T11:39:41.454Z,2372.00
2022-08-28T11:40:41.520Z,2360.00
2022-08-28T11:41:41.466Z,2252.00
2022-08-28T11:42:41.450Z,2296.00
2022-08-28T11:43:41.423Z,2368.00
2022-08-28T11:44:41.424Z,2380.00
2022-08-28T11:45:41.476Z,2380.00
2022-08-28T11:46:41.463Z,2372.00
2022-08-28T11:47:41.396Z,2376.00
2022-08-28T11:48:41.382Z,2372.00
2022-08-28T11:49:41.379Z,2364.00
2022-08-28T11:50:41.380Z,2356.00
2022-08-28T11:51:41.391Z,2348.00
2022-08-28T11:52:41.380Z,2348.00
2022-08-28T11:53:41.365Z,2348.00
2022-08-28T11:54:41.350Z,2336.00
2022-08-28T11:55:41.336Z,2332.00
2022-08-28T11:56:41.357Z,2340.00
2022-08-28T11:57:41.322Z,2336.00
2022-08-28T11:58:41.316Z,2328.00
2022-08-28T11:59:41.305Z,2332.00
2022-08-28T12:00:41.315Z,2324.00
2022-08-28T12:01:41.322Z,2312.00
2022-08-28T12:02:41.352Z,2308.00
2022-08-28T12:03:41.273Z,2316.00
2022-08-28T12:04:41.314Z,2316.00
2022-08-28T12:05:41.270Z,2320.00
2022-08-28T12:06:41.272Z,2324.00
2022-08-28T12:07:41.244Z,2320.00
2022-08-28T12:08:41.238Z,2312.00
2022-08-28T12:09:41.335Z,2308.00
2022-08-28T12:10:41.218Z,2308.00
2022-08-28T12:11:41.300Z,2308.00
2022-08-28T12:12:41.207Z,2304.00
2022-08-28T12:13:41.199Z,2300.00
2022-08-28T12:14:41.783Z,2296.00
2022-08-28T12:15:41.243Z,2296.00
2022-08-28T12:16:41.203Z,2288.00
2022-08-28T12:17:41.164Z,2284.00
2022-08-28T12:18:41.159Z,2284.00
2022-08-28T12:19:52.095Z,2276.00
2022-08-28T12:20:42.146Z,2260.00
2022-08-28T12:21:41.159Z,2256.00
2022-08-28T12:22:41.124Z,2260.00
2022-08-28T12:23:41.133Z,2268.00
2022-08-28T12:24:41.121Z,2268.00
2022-08-28T12:25:41.101Z,2268.00
2022-08-28T12:26:41.123Z,2272.00
2022-08-28T12:27:41.088Z,2276.00
2022-08-28T12:28:41.085Z,2272.00
2022-08-28T12:29:41.074Z,2264.00
2022-08-28T12:30:41.147Z,2260.00
2022-08-28T12:31:41.088Z,2264.00
2022-08-28T12:32:41.055Z,2264.00
2022-08-28T12:33:41.049Z,2268.00